Time;durP1;ratioP1;P1;durP2;ratioP2;P2;SDS_P1;SDS_P2;PMS_P1;PMS_P2;Temp;Humidity;BMP_temperature;BMP_pressure;BME280_temperature;BME280_humidity;BME280_pressure;Samples;Min_cycle;Max_cycle;Signal;HPM_P1;HPM_P2
2022/01/19 00:00:59;;;;;;;30.23;22.75;;;6.30;75.10;;;;;;5067893;28;20047;-80
2022/01/19 00:03:26;;;;;;;25.38;20.60;;;6.30;75.10;;;;;;5066310;28;20119;-81
2022/01/19 00:05:52;;;;;;;25.23;20.75;;;6.30;75.10;;;;;;5066004;28;20039;-81
2022/01/19 00:08:21;;;;;;;26.98;22.25;;;6.40;75.30;;;;;;5067297;28;20090;-81
2022/01/19 00:10:49;;;;;;;25.38;20.98;;;6.40;75.30;;;;;;5067569;28;20396;-81
2022/01/19 00:13:15;;;;;;;27.23;20.38;;;6.40;75.20;;;;;;5070670;28;20040;-79
2022/01/19 00:15:41;;;;;;;28.05;21.98;;;6.40;75.20;;;;;;5070886;28;20387;-80
2022/01/19 00:18:07;;;;;;;28.48;20.98;;;6.40;75.20;;;;;;5070508;28;20119;-80
2022/01/19 00:20:35;;;;;;;27.48;20.33;;;6.40;75.20;;;;;;5052807;28;20052;-80
2022/01/19 00:23:03;;;;;;;28.45;20.95;;;6.40;75.20;;;;;;5071845;28;20483;-80
2022/01/19 00:25:30;;;;;;;25.38;21.10;;;6.40;75.20;;;;;;5070673;28;20145;-82
2022/01/19 00:27:56;;;;;;;27.50;21.88;;;6.50;75.30;;;;;;5054172;28;20028;-81
2022/01/19 00:30:22;;;;;;;28.48;21.60;;;6.50;75.30;;;;;;5071566;28;20032;-81
2022/01/19 00:32:48;;;;;;;29.33;22.02;;;6.50;75.30;;;;;;5071014;28;20038;-80
2022/01/19 00:35:14;;;;;;;27.20;21.17;;;6.50;75.30;;;;;;5070782;28;20430;-80
2022/01/19 00:37:42;;;;;;;25.05;21.52;;;6.50;75.30;;;;;;5070443;28;20032;-81
2022/01/19 00:40:11;;;;;;;26.10;21.27;;;6.50;75.20;;;;;;5069720;28;20643;-81
2022/01/19 00:42:37;;;;;;;28.05;21.25;;;6.50;75.20;;;;;;5069776;28;20115;-80
2022/01/19 00:45:05;;;;;;;24.75;20.98;;;6.50;75.30;;;;;;5070364;28;20024;-80
2022/01/19 00:47:31;;;;;;;27.95;21.90;;;6.50;75.30;;;;;;5070221;28;20476;-80
2022/01/19 00:49:57;;;;;;;28.27;20.65;;;6.50;75.20;;;;;;5053056;28;20143;-80
2022/01/19 00:52:23;;;;;;;29.77;21.98;;;6.50;75.20;;;;;;5052701;28;20094;-81
2022/01/19 00:54:49;;;;;;;25.98;20.92;;;6.50;75.20;;;;;;5069745;28;20503;-81
2022/01/19 00:57:15;;;;;;;28.10;21.20;;;6.50;75.30;;;;;;5070894;28;20020;-81
2022/01/19 00:59:41;;;;;;;25.73;21.35;;;6.50;75.20;;;;;;5070333;28;20021;-81
2022/01/19 01:02:07;;;;;;;27.30;22.10;;;6.50;75.20;;;;;;5070902;28;20105;-82
2022/01/19 01:04:33;;;;;;;26.67;21.88;;;6.50;75.20;;;;;;5069423;28;20028;-82
2022/01/19 01:07:00;;;;;;;30.70;21.48;;;6.50;75.20;;;;;;5069238;28;20430;-82
2022/01/19 01:09:27;;;;;;;25.92;20.88;;;6.50;75.20;;;;;;5069340;28;20028;-82
2022/01/19 01:18:17;;;;;;;26.05;21.55;;;6.50;75.20;;;;;;5052681;28;20032;-82
2022/01/19 01:19:59;;;;;;;25.98;21.98;;;6.60;75.30;;;;;;5068554;28;20051;-82
2022/01/19 01:22:26;;;;;;;25.65;21.25;;;6.60;75.20;;;;;;5069209;28;20030;-82
2022/01/19 01:24:52;;;;;;;27.25;21.40;;;6.60;75.20;;;;;;5069261;28;20036;-82
2022/01/19 01:27:19;;;;;;;25.75;21.77;;;6.60;75.20;;;;;;5068910;28;20029;-82
2022/01/19 01:29:45;;;;;;;25.35;20.70;;;6.60;75.20;;;;;;5068834;28;20047;-81
2022/01/19 01:32:11;;;;;;;26.73;20.00;;;6.70;75.40;;;;;;5069965;28;20071;-81
2022/01/19 01:34:37;;;;;;;26.08;21.05;;;6.70;75.40;;;;;;5068576;28;20077;-81
2022/01/19 01:37:03;;;;;;;27.15;21.23;;;6.70;75.30;;;;;;5069177;28;20060;-81
2022/01/19 01:39:29;;;;;;;27.23;20.92;;;6.70;75.30;;;;;;5068811;28;20040;-80
2022/01/19 01:41:56;;;;;;;27.20;20.20;;;6.70;75.30;;;;;;5069012;28;20412;-81
2022/01/19 01:44:34;;;;;;;23.15;20.58;;;6.70;75.30;;;;;;5068706;28;20345;-81
2022/01/19 01:47:01;;;;;;;24.02;19.83;;;6.70;75.20;;;;;;5068838;28;20040;-81
2022/01/19 01:49:42;;;;;;;27.55;20.20;;;6.80;75.40;;;;;;5068229;28;20028;-81
2022/01/19 01:54:54;;;;;;;25.77;20.65;;;6.80;75.30;;;;;;5068696;28;20033;-82
2022/01/19 01:57:20;;;;;;;30.17;20.80;;;6.80;75.30;;;;;;5070010;28;20123;-83
2022/01/19 01:59:48;;;;;;;24.38;19.45;;;6.80;75.30;;;;;;5053587;28;20029;-82
2022/01/19 02:02:43;;;;;;;27.38;20.65;;;6.90;75.40;;;;;;5049774;28;20025;-82
2022/01/19 02:05:10;;;;;;;23.63;19.58;;;6.90;75.40;;;;;;5065540;28;20024;-81
2022/01/19 02:07:49;;;;;;;24.48;19.35;;;6.90;75.30;;;;;;5075616;28;20479;-83
2022/01/19 02:10:35;;;;;;;26.00;18.88;;;6.90;75.30;;;;;;5049045;28;20863;-82
2022/01/19 02:24:14;;;;;;;21.27;17.60;;;6.90;75.30;;;;;;5092857;28;20025;-83
2022/01/19 02:26:55;;;;;;;22.60;18.70;;;6.90;75.30;;;;;;5075846;28;20040;-82
2022/01/19 02:30:44;;;;;;;24.25;19.48;;;6.90;75.40;;;;;;5092831;28;20064;-82
2022/01/19 02:40:48;;;;;;;21.58;18.40;;;6.90;75.30;;;;;;5065668;28;20090;-80
2022/01/19 02:43:21;;;;;;;25.25;19.45;;;6.90;75.30;;;;;;5049651;28;20039;-80
2022/01/19 02:51:17;;;;;;;26.42;18.92;;;6.90;75.30;;;;;;5074717;28;20353;-83
2022/01/19 02:53:43;;;;;;;22.83;17.83;;;7.00;75.50;;;;;;5074026;28;20380;-83
2022/01/19 02:56:17;;;;;;;23.10;18.27;;;7.00;75.40;;;;;;5073372;28;20040;-83
2022/01/19 02:58:52;;;;;;;20.77;17.27;;;7.00;75.40;;;;;;5073229;28;20029;-80
2022/01/19 03:09:27;;;;;;;23.58;18.20;;;7.00;75.40;;;;;;5072032;28;20430;-80
2022/01/19 03:11:54;;;;;;;21.02;17.45;;;7.00;75.40;;;;;;5071426;28;20395;-79
2022/01/19 03:14:21;;;;;;;22.90;17.88;;;7.00;75.40;;;;;;5071395;28;20048;-82
2022/01/19 03:16:47;;;;;;;22.05;16.70;;;7.00;75.40;;;;;;5072597;28;20033;-82
2022/01/19 03:19:14;;;;;;;22.23;16.73;;;7.00;75.40;;;;;;5072153;28;20034;-81
2022/01/19 03:21:41;;;;;;;21.30;16.63;;;7.00;75.40;;;;;;5054164;28;20114;-81
2022/01/19 03:24:08;;;;;;;20.70;16.67;;;7.00;75.50;;;;;;5070908;28;20029;-80
2022/01/19 03:26:34;;;;;;;18.55;16.35;;;7.00;75.50;;;;;;5069982;28;20025;-82
2022/01/19 03:29:21;;;;;;;23.00;16.13;;;7.00;75.50;;;;;;5071349;28;20040;-81
2022/01/19 03:31:47;;;;;;;19.38;16.33;;;7.00;75.40;;;;;;5070460;28;20415;-82
2022/01/19 03:34:13;;;;;;;21.95;17.52;;;7.00;75.40;;;;;;5070550;28;20484;-83
2022/01/19 03:36:40;;;;;;;20.15;16.63;;;7.00;75.40;;;;;;5053358;28;20033;-79
2022/01/19 03:39:07;;;;;;;17.52;15.10;;;7.00;75.40;;;;;;5053636;28;20032;-82
2022/01/19 03:41:33;;;;;;;18.00;15.15;;;7.00;75.30;;;;;;5069898;28;20031;-82
2022/01/19 03:43:59;;;;;;;16.40;14.70;;;7.10;75.50;;;;;;5053477;28;20036;-82
2022/01/19 03:46:33;;;;;;;20.88;15.23;;;7.10;75.50;;;;;;5068985;28;20020;-85
2022/01/19 03:49:10;;;;;;;18.08;14.35;;;7.10;75.40;;;;;;5069993;28;20085;-81
2022/01/19 03:51:36;;;;;;;19.58;15.30;;;7.10;75.40;;;;;;5052863;28;20052;-79
2022/01/19 03:54:03;;;;;;;17.50;15.02;;;7.10;75.40;;;;;;5069803;28;20044;-82
2022/01/19 03:56:29;;;;;;;18.95;14.80;;;7.10;75.40;;;;;;5053156;28;20131;-82
2022/01/19 03:58:55;;;;;;;15.30;13.70;;;7.10;75.40;;;;;;5053175;28;20032;-84
2022/01/19 04:01:22;;;;;;;17.13;14.35;;;7.10;75.40;;;;;;5069807;28;20024;-85
2022/01/19 04:06:50;;;;;;;16.40;14.70;;;7.10;75.40;;;;;;5069949;28;20021;-84
2022/01/19 04:09:11;;;;;;;17.25;14.18;;;7.10;75.40;;;;;;5069641;28;20186;-83
2022/01/19 04:11:37;;;;;;;18.90;14.23;;;7.10;75.40;;;;;;5053122;28;20529;-84
2022/01/19 04:16:29;;;;;;;16.83;13.85;;;7.10;75.30;;;;;;5069548;28;20025;-83
2022/01/19 04:19:07;;;;;;;18.27;15.30;;;7.10;75.40;;;;;;5053177;28;20029;-83
2022/01/19 04:21:34;;;;;;;19.40;13.90;;;7.10;75.40;;;;;;5069465;28;20131;-82
2022/01/19 04:24:00;;;;;;;16.50;13.85;;;7.10;75.40;;;;;;5069790;28;20125;-82
2022/01/19 04:26:27;;;;;;;17.88;13.48;;;7.20;75.50;;;;;;5069429;28;20032;-82
2022/01/19 04:28:54;;;;;;;17.08;13.73;;;7.10;75.30;;;;;;5052935;28;20021;-83
2022/01/19 04:31:20;;;;;;;17.85;13.82;;;7.20;75.50;;;;;;5069567;28;20060;-82
2022/01/19 04:33:46;;;;;;;17.75;13.45;;;7.20;75.40;;;;;;5069361;28;20037;-82
2022/01/19 04:36:33;;;;;;;15.77;13.30;;;7.20;75.40;;;;;;5070705;28;20080;-83
2022/01/19 05:07:16;;;;;;;16.83;12.60;;;7.20;75.30;;;;;;5072872;28;20032;-81
2022/01/19 05:15:12;;;;;;;18.17;13.18;;;7.20;75.30;;;;;;5072604;28;20379;-80
2022/01/19 05:17:39;;;;;;;17.75;12.85;;;7.20;75.30;;;;;;5072285;28;20032;-81
2022/01/19 05:20:11;;;;;;;19.60;12.77;;;7.20;75.30;;;;;;5072263;28;20032;-81
2022/01/19 05:22:38;;;;;;;16.10;13.13;;;7.20;75.30;;;;;;5072264;28;20089;-81
2022/01/19 05:25:16;;;;;;;18.85;13.05;;;7.20;75.20;;;;;;5057330;28;20041;-80
2022/01/19 05:27:49;;;;;;;16.83;13.32;;;7.20;75.20;;;;;;5072582;28;20051;-81
2022/01/19 05:30:17;;;;;;;16.50;12.27;;;7.20;75.20;;;;;;5072033;28;20123;-81
2022/01/19 05:32:45;;;;;;;15.63;13.35;;;7.20;75.20;;;;;;5071890;28;20040;-80
2022/01/19 05:35:11;;;;;;;13.27;11.73;;;7.30;75.30;;;;;;5073030;28;20097;-80
2022/01/19 05:37:54;;;;;;;17.80;12.43;;;7.30;75.30;;;;;;5052188;28;20025;-82
2022/01/19 05:40:58;;;;;;;15.13;12.50;;;7.20;75.10;;;;;;5066946;28;20444;-80
2022/01/19 05:43:25;;;;;;;17.27;12.25;;;7.20;75.10;;;;;;5071528;28;20032;-80
2022/01/19 05:45:51;;;;;;;16.75;12.90;;;7.20;75.10;;;;;;5054550;28;20119;-79
2022/01/19 05:48:20;;;;;;;19.02;13.30;;;7.20;75.10;;;;;;5052410;28;20082;-80
2022/01/19 05:50:51;;;;;;;15.90;13.32;;;7.30;75.30;;;;;;5065528;28;20036;-81
2022/01/19 05:53:21;;;;;;;15.35;13.20;;;7.20;75.10;;;;;;5046761;28;20091;-78
2022/01/19 05:55:47;;;;;;;14.52;12.68;;;7.20;75.10;;;;;;5046178;28;20040;-81
2022/01/19 05:58:13;;;;;;;19.13;13.60;;;7.20;75.10;;;;;;5054118;28;20040;-79
2022/01/19 06:00:40;;;;;;;15.20;12.77;;;7.20;75.10;;;;;;5067739;28;20546;-79
2022/01/19 06:03:10;;;;;;;16.10;12.38;;;7.20;75.10;;;;;;5068129;28;20024;-80
2022/01/19 06:05:54;;;;;;;16.60;13.80;;;7.20;75.10;;;;;;5070798;28;20150;-78
2022/01/19 06:08:43;;;;;;;13.55;11.85;;;7.20;75.10;;;;;;5069612;28;20067;-79
2022/01/19 06:11:11;;;;;;;16.10;12.10;;;7.20;75.10;;;;;;5067049;28;20056;-80
2022/01/19 06:13:38;;;;;;;15.10;12.57;;;7.20;75.10;;;;;;5067881;28;20119;-80
2022/01/19 06:16:05;;;;;;;17.73;13.93;;;7.20;75.10;;;;;;5051504;28;20036;-79
2022/01/19 06:18:32;;;;;;;17.40;12.88;;;7.20;75.10;;;;;;5067887;28;20028;-79
2022/01/19 06:21:00;;;;;;;16.30;12.32;;;7.20;75.10;;;;;;5067563;28;20055;-81
2022/01/19 06:23:34;;;;;;;14.23;12.35;;;7.20;75.60;;;;;;5067297;28;20039;-82
2022/01/19 06:26:06;;;;;;;16.77;12.55;;;7.20;75.10;;;;;;5050994;28;20028;-83
2022/01/19 06:28:33;;;;;;;18.10;13.23;;;7.20;75.10;;;;;;5068954;28;20032;-82
2022/01/19 06:31:00;;;;;;;16.05;12.55;;;7.20;75.10;;;;;;5062620;28;20028;-79
2022/01/19 06:33:26;;;;;;;15.55;13.05;;;7.30;75.20;;;;;;5052201;28;20701;-79
2022/01/19 06:35:54;;;;;;;15.73;13.32;;;7.20;75.00;;;;;;5056241;28;20116;-81
2022/01/19 06:38:29;;;;;;;14.13;11.75;;;7.20;75.10;;;;;;5055699;28;20086;-80
2022/01/19 06:41:03;;;;;;;16.77;12.30;;;7.20;75.10;;;;;;5067111;28;20097;-79
2022/01/19 06:43:29;;;;;;;14.90;12.60;;;7.20;75.10;;;;;;5066467;28;20024;-80
2022/01/19 06:45:56;;;;;;;14.15;12.15;;;7.20;75.10;;;;;;5067343;28;20060;-79
2022/01/19 06:48:22;;;;;;;14.73;12.82;;;7.20;75.10;;;;;;5050323;28;20037;-80
2022/01/19 06:50:49;;;;;;;16.95;12.65;;;7.20;75.10;;;;;;5072510;28;20083;-80
2022/01/19 06:53:20;;;;;;;14.90;12.73;;;7.20;75.10;;;;;;5070444;28;20032;-83
2022/01/19 06:55:58;;;;;;;19.08;13.55;;;7.20;75.00;;;;;;5067637;28;20040;-82
2022/01/19 06:58:26;;;;;;;17.23;12.70;;;7.20;75.00;;;;;;5067214;28;20101;-79
2022/01/19 07:01:12;;;;;;;19.80;13.05;;;7.20;75.00;;;;;;5068466;28;20028;-84
2022/01/19 07:03:58;;;;;;;14.60;12.05;;;7.20;75.00;;;;;;5067585;28;20037;-84
2022/01/19 07:06:26;;;;;;;19.85;13.40;;;7.30;75.20;;;;;;5050774;28;20055;-83
2022/01/19 07:09:12;;;;;;;18.27;14.40;;;7.30;75.40;;;;;;5053374;28;20033;-86
2022/01/19 07:11:43;;;;;;;20.70;14.77;;;7.30;75.60;;;;;;5051729;28;20298;-86
2022/01/19 07:14:12;;;;;;;18.63;15.02;;;7.40;75.90;;;;;;5067630;28;20044;-90
2022/01/19 07:16:40;;;;;;;18.73;14.57;;;7.50;76.20;;;;;;5067956;28;20028;-91
2022/01/19 07:19:07;;;;;;;16.55;13.43;;;7.60;76.30;;;;;;5052249;28;20028;-84
2022/01/19 07:21:33;;;;;;;15.15;13.10;;;7.60;76.40;;;;;;5052265;28;20506;-91
2022/01/19 07:23:59;;;;;;;17.33;12.90;;;7.60;76.50;;;;;;5069870;28;20028;-87
2022/01/19 07:26:26;;;;;;;15.48;12.15;;;7.60;77.00;;;;;;5052985;28;20033;-93
2022/01/19 07:28:53;;;;;;;16.80;12.85;;;7.60;76.50;;;;;;5057459;28;20049;-89
2022/01/19 07:31:19;;;;;;;16.60;12.40;;;7.60;76.60;;;;;;5050682;28;20032;-82
2022/01/19 07:33:46;;;;;;;16.67;12.88;;;7.60;76.70;;;;;;5067453;28;20052;-80
2022/01/19 07:36:16;;;;;;;19.65;14.40;;;7.60;76.70;;;;;;5067694;28;20195;-86
2022/01/19 07:38:43;;;;;;;18.40;13.05;;;7.60;76.70;;;;;;5047181;28;20113;-82
2022/01/19 07:41:09;;;;;;;17.63;12.57;;;7.60;76.70;;;;;;5066588;28;20151;-91
2022/01/19 07:43:41;;;;;;;16.42;12.82;;;7.60;76.70;;;;;;5051474;28;20124;-82
2022/01/19 07:46:15;;;;;;;14.70;12.27;;;7.60;76.70;;;;;;5067296;28;20553;-82
2022/01/19 07:49:02;;;;;;;16.88;12.45;;;7.60;76.70;;;;;;5068062;28;20036;-80
2022/01/19 07:51:38;;;;;;;14.75;12.25;;;7.60;76.70;;;;;;5059789;28;20263;-81
2022/01/19 07:54:25;;;;;;;14.93;11.88;;;7.60;76.70;;;;;;5067742;28;20044;-82
2022/01/19 07:57:09;;;;;;;17.40;12.32;;;7.60;76.70;;;;;;5066528;28;20232;-81
2022/01/19 07:59:53;;;;;;;14.68;12.20;;;7.60;76.60;;;;;;5069477;28;20036;-85
2022/01/19 08:02:20;;;;;;;15.63;11.68;;;7.60;76.60;;;;;;5071012;28;20039;-90
2022/01/19 08:04:46;;;;;;;16.02;13.10;;;7.60;76.60;;;;;;5079569;28;20060;-85
2022/01/19 08:07:15;;;;;;;16.90;12.57;;;7.60;76.60;;;;;;5069001;28;20035;-85
2022/01/19 08:09:42;;;;;;;14.70;12.90;;;7.60;76.60;;;;;;5066883;28;20032;-92
2022/01/19 08:12:10;;;;;;;16.98;13.43;;;7.60;76.60;;;;;;5049049;28;20391;-86
2022/01/19 08:14:41;;;;;;;15.23;13.00;;;7.60;76.50;;;;;;5049384;28;20126;-82
2022/01/19 08:17:08;;;;;;;14.07;11.82;;;7.60;76.50;;;;;;5046567;28;20037;-84
2022/01/19 08:19:36;;;;;;;16.67;12.63;;;7.60;76.50;;;;;;5063549;28;20110;-84
2022/01/19 08:22:02;;;;;;;17.55;12.93;;;7.70;76.60;;;;;;5066361;28;20083;-83
2022/01/19 08:24:30;;;;;;;15.05;12.13;;;7.70;76.60;;;;;;5069527;28;20044;-83
2022/01/19 08:26:59;;;;;;;15.75;12.65;;;7.70;76.50;;;;;;5069206;28;20101;-84
2022/01/19 08:29:34;;;;;;;13.85;11.80;;;7.70;76.50;;;;;;5069449;28;20040;-83
2022/01/19 08:32:07;;;;;;;16.38;11.63;;;7.70;76.40;;;;;;5069536;28;20491;-83
2022/01/19 08:34:53;;;;;;;15.95;12.05;;;7.80;76.60;;;;;;5074653;28;20642;-83
2022/01/19 08:37:19;;;;;;;14.40;11.18;;;7.80;76.50;;;;;;5074155;28;20032;-83
2022/01/19 08:39:53;;;;;;;16.05;12.43;;;7.80;76.40;;;;;;5072200;28;20029;-83
2022/01/19 08:42:21;;;;;;;15.00;12.27;;;7.80;76.40;;;;;;5072151;28;20056;-84
2022/01/19 08:44:47;;;;;;;17.80;12.07;;;7.80;76.30;;;;;;5071942;28;20086;-84
2022/01/19 08:47:20;;;;;;;12.70;10.90;;;7.80;76.30;;;;;;5071355;28;20027;-83
2022/01/19 08:50:07;;;;;;;13.35;11.00;;;7.90;76.40;;;;;;5071292;28;20029;-84
2022/01/19 08:53:03;;;;;;;13.75;11.00;;;7.90;76.40;;;;;;5067580;28;20047;-85
2022/01/19 08:55:49;;;;;;;13.32;10.68;;;7.90;76.30;;;;;;5070213;28;20028;-85
2022/01/19 08:58:15;;;;;;;15.32;11.13;;;7.90;76.30;;;;;;5071531;28;20046;-85
2022/01/19 09:00:43;;;;;;;12.95;10.05;;;7.90;76.20;;;;;;5070479;28;20059;-85
2022/01/19 09:03:09;;;;;;;12.80;11.15;;;8.00;76.40;;;;;;5071256;28;20039;-86
2022/01/19 09:05:36;;;;;;;13.45;10.55;;;8.00;76.30;;;;;;5071958;28;20033;-84
2022/01/19 09:08:02;;;;;;;14.40;11.85;;;8.00;76.30;;;;;;5087390;28;20364;-84
2022/01/19 09:10:28;;;;;;;12.07;10.82;;;8.00;76.20;;;;;;5069829;28;20021;-82
2022/01/19 09:12:55;;;;;;;13.75;10.93;;;8.00;76.20;;;;;;5069389;28;20058;-82
2022/01/19 09:15:22;;;;;;;12.25;10.63;;;8.00;76.20;;;;;;5069356;28;20037;-82
2022/01/19 09:17:49;;;;;;;11.95;10.63;;;8.10;76.40;;;;;;5070721;28;20053;-83
2022/01/19 09:20:16;;;;;;;15.00;12.02;;;8.10;76.80;;;;;;5069533;28;20060;-83
2022/01/19 09:22:42;;;;;;;13.90;10.57;;;8.10;76.20;;;;;;5069151;28;20761;-83
2022/01/19 09:25:11;;;;;;;15.15;11.20;;;8.10;76.20;;;;;;5070048;28;20120;-81
2022/01/19 09:27:40;;;;;;;17.30;11.60;;;8.20;76.30;;;;;;5070313;28;20115;-80
2022/01/19 09:30:14;;;;;;;15.00;11.55;;;8.10;76.10;;;;;;5070260;28;20084;-87
2022/01/19 09:32:42;;;;;;;16.73;11.90;;;8.20;76.30;;;;;;5070814;28;20154;-84
2022/01/19 09:35:09;;;;;;;16.77;11.10;;;8.20;76.20;;;;;;5069430;28;20604;-82
2022/01/19 09:37:38;;;;;;;14.38;10.50;;;8.20;76.20;;;;;;5051688;28;20020;-82
2022/01/19 09:40:06;;;;;;;12.60;10.55;;;8.20;76.70;;;;;;5051934;28;20116;-80
2022/01/19 09:42:33;;;;;;;13.73;10.77;;;8.10;76.00;;;;;;5069581;28;20024;-84
2022/01/19 09:44:59;;;;;;;15.93;11.23;;;8.20;76.20;;;;;;5083670;28;20029;-80
2022/01/19 09:47:25;;;;;;;16.73;11.20;;;8.20;76.20;;;;;;5070038;28;20091;-79
2022/01/19 09:49:51;;;;;;;15.07;12.13;;;8.20;76.20;;;;;;5069359;28;20400;-80
2022/01/19 09:52:17;;;;;;;13.60;10.52;;;8.20;76.20;;;;;;5070341;28;20032;-76
2022/01/19 09:59:02;;;;;;;13.38;11.18;;;8.20;76.10;;;;;;5056611;28;20048;-76
2022/01/19 10:01:28;;;;;;;14.38;12.05;;;8.20;76.00;;;;;;5053298;28;20052;-75
2022/01/19 10:03:54;;;;;;;13.07;10.70;;;8.30;76.20;;;;;;5049063;28;20277;-76
2022/01/19 10:06:23;;;;;;;12.77;11.07;;;8.30;76.20;;;;;;5048953;28;20082;-76
2022/01/19 10:18:23;;;;;;;15.15;11.00;;;8.50;76.30;;;;;;5085267;28;20028;-77
2022/01/19 10:21:08;;;;;;;13.25;10.55;;;8.60;76.30;;;;;;5090231;28;20049;-76
2022/01/19 10:23:48;;;;;;;11.90;10.45;;;8.60;76.20;;;;;;5075332;28;20032;-76
2022/01/19 10:26:22;;;;;;;15.82;11.02;;;8.70;76.30;;;;;;5079595;28;20265;-77
2022/01/19 10:29:07;;;;;;;13.60;10.05;;;8.80;76.30;;;;;;5090413;28;20025;-76
2022/01/19 10:31:35;;;;;;;13.38;11.32;;;8.90;76.40;;;;;;5075773;28;20177;-77
2022/01/19 10:34:22;;;;;;;12.32;10.57;;;9.00;76.40;;;;;;5092991;28;20056;-76
2022/01/19 10:36:56;;;;;;;11.27;10.10;;;9.10;76.30;;;;;;5094014;28;20032;-78
2022/01/19 10:39:24;;;;;;;12.50;11.20;;;9.20;76.30;;;;;;5093543;28;20185;-77
2022/01/19 10:42:02;;;;;;;14.32;10.63;;;9.30;76.30;;;;;;5072741;28;20114;-79
2022/01/19 10:44:56;;;;;;;11.23;9.70;;;9.40;76.40;;;;;;5074882;28;20017;-78
2022/01/19 10:47:56;;;;;;;12.73;10.40;;;9.50;76.30;;;;;;5070146;28;20123;-79
2022/01/19 10:50:33;;;;;;;11.40;10.18;;;9.60;76.30;;;;;;5048711;28;20031;-79
2022/01/19 10:53:04;;;;;;;13.43;11.32;;;9.60;76.10;;;;;;5048620;28;20036;-78
2022/01/19 10:55:40;;;;;;;12.15;10.45;;;9.80;76.50;;;;;;5063939;28;20116;-80
2022/01/19 10:58:16;;;;;;;13.52;10.55;;;9.80;76.20;;;;;;5052748;28;20040;-78
2022/01/19 11:00:50;;;;;;;15.10;10.00;;;9.90;76.30;;;;;;5068277;28;20139;-76
2022/01/19 11:03:18;;;;;;;12.90;10.77;;;9.90;76.20;;;;;;5067089;28;20067;-76
2022/01/19 11:05:48;;;;;;;13.55;9.85;;;10.00;76.20;;;;;;5068079;28;20548;-76
2022/01/19 11:08:17;;;;;;;11.40;10.25;;;10.00;76.20;;;;;;5067690;28;20036;-77
2022/01/19 11:10:49;;;;;;;13.63;10.52;;;10.00;76.10;;;;;;5066768;28;20142;-77
2022/01/19 11:13:33;;;;;;;12.07;9.70;;;10.10;76.30;;;;;;5066456;28;20047;-77
2022/01/19 11:16:03;;;;;;;12.85;11.05;;;10.20;76.40;;;;;;5067885;28;20029;-76
2022/01/19 11:18:32;;;;;;;11.85;10.27;;;10.30;76.50;;;;;;5068011;28;20071;-76
2022/01/19 11:21:03;;;;;;;12.77;10.23;;;10.30;76.30;;;;;;5067985;28;20492;-78
2022/01/19 11:24:15;;;;;;;11.82;10.57;;;10.40;76.20;;;;;;5066703;28;20028;-78
2022/01/19 11:26:41;;;;;;;15.43;9.80;;;10.60;76.40;;;;;;5063958;28;20040;-78
2022/01/19 11:29:14;;;;;;;12.60;10.07;;;10.60;76.20;;;;;;5066010;28;20508;-78
2022/01/19 11:31:40;;;;;;;;;;;10.70;76.20;;;;;;5068135;28;20036;-77
2022/01/19 11:34:06;;;;;;;10.77;9.68;;;10.80;76.30;;;;;;5067595;28;19916;-78
2022/01/19 11:36:42;;;;;;;11.20;9.55;;;10.90;76.20;;;;;;5066437;28;20384;-78
2022/01/19 11:39:13;;;;;;;11.52;9.52;;;10.90;76.10;;;;;;5067560;28;20024;-78
2022/01/19 11:41:51;;;;;;;12.38;10.32;;;11.00;76.20;;;;;;5050094;28;20039;-78
2022/01/19 11:44:35;;;;;;;12.35;10.15;;;11.00;76.10;;;;;;5068002;28;20043;-78
2022/01/19 11:47:13;;;;;;;11.63;9.85;;;11.00;76.10;;;;;;5066763;28;20036;-78
2022/01/19 11:49:55;;;;;;;13.13;10.43;;;11.00;76.10;;;;;;5067370;28;20039;-78
2022/01/19 11:52:26;;;;;;;13.23;10.07;;;11.00;76.30;;;;;;5066740;28;20119;-76
2022/01/19 11:55:10;;;;;;;12.05;9.38;;;11.00;76.40;;;;;;5067976;28;20059;-76
2022/01/19 11:57:36;;;;;;;13.82;9.77;;;11.10;76.50;;;;;;5066656;28;20036;-78
2022/01/19 12:00:10;;;;;;;13.43;10.25;;;11.10;76.50;;;;;;5046516;28;20120;-77
2022/01/19 12:02:43;;;;;;;11.43;8.57;;;11.20;76.50;;;;;;5046204;28;20508;-77
2022/01/19 12:05:09;;;;;;;10.38;9.27;;;11.30;76.50;;;;;;5046743;28;20376;-77
2022/01/19 12:07:38;;;;;;;10.52;8.75;;;11.30;76.40;;;;;;5061858;28;20075;-79
2022/01/19 12:10:11;;;;;;;11.27;8.75;;;11.40;76.40;;;;;;5062588;28;20052;-77
2022/01/19 12:13:08;;;;;;;15.07;8.40;;;11.40;76.30;;;;;;5047035;28;20037;-77
2022/01/19 12:15:46;;;;;;;8.95;7.68;;;11.50;76.40;;;;;;5047345;28;20036;-76
2022/01/19 12:18:38;;;;;;;11.80;8.65;;;11.50;76.40;;;;;;5050562;28;20036;-79
2022/01/19 12:21:06;;;;;;;10.90;8.02;;;11.60;76.60;;;;;;5048981;28;20044;-76
2022/01/19 12:23:35;;;;;;;9.07;8.18;;;11.60;76.70;;;;;;5065536;28;20040;-75
2022/01/19 12:26:06;;;;;;;12.82;7.60;;;11.60;76.60;;;;;;5067031;28;20024;-76
2022/01/19 12:28:46;;;;;;;10.65;7.15;;;11.70;76.70;;;;;;5066851;28;20036;-76
2022/01/19 12:31:22;;;;;;;9.30;8.07;;;11.80;76.80;;;;;;5066630;28;20069;-76
2022/01/19 12:34:04;;;;;;;8.60;7.13;;;11.90;76.80;;;;;;5065315;28;20033;-77
2022/01/19 12:36:58;;;;;;;10.52;7.50;;;12.00;76.80;;;;;;5066144;28;20123;-77
2022/01/19 12:39:30;;;;;;;12.10;5.57;;;12.10;76.70;;;;;;5051462;28;20337;-76
2022/01/19 12:41:59;;;;;;;10.77;6.03;;;12.20;76.70;;;;;;5070064;28;20025;-75
2022/01/19 12:44:35;;;;;;;8.07;5.90;;;12.30;76.70;;;;;;5054659;28;20033;-79
2022/01/19 12:47:24;;;;;;;6.80;5.70;;;12.40;76.70;;;;;;5052304;28;20043;-75
2022/01/19 12:50:03;;;;;;;5.93;4.80;;;12.50;76.80;;;;;;5060255;28;20117;-76
2022/01/19 12:52:32;;;;;;;10.77;5.10;;;12.50;76.80;;;;;;5068382;28;20043;-78
2022/01/19 12:55:09;;;;;;;6.53;5.10;;;12.60;76.90;;;;;;5071787;28;20124;-74
2022/01/19 12:57:36;;;;;;;5.13;4.05;;;12.60;76.90;;;;;;5054687;28;20476;-76
2022/01/19 13:00:05;;;;;;;6.57;3.90;;;12.70;77.00;;;;;;5072095;28;20029;-75
2022/01/19 13:02:31;;;;;;;4.75;3.85;;;12.80;77.00;;;;;;5066190;28;20434;-75
2022/01/19 13:05:07;;;;;;;5.57;4.07;;;12.80;76.90;;;;;;5066003;28;20024;-76
2022/01/19 13:07:36;;;;;;;4.85;3.90;;;12.80;76.80;;;;;;5066452;28;20275;-75
2022/01/19 13:10:20;;;;;;;4.75;3.83;;;12.70;76.70;;;;;;5048281;28;20037;-77
2022/01/19 13:13:04;;;;;;;5.55;3.42;;;12.80;76.80;;;;;;5062751;28;20051;-75
2022/01/19 13:15:50;;;;;;;5.78;4.10;;;12.80;76.60;;;;;;5055493;28;20182;-75
2022/01/19 13:18:35;;;;;;;6.53;4.20;;;12.70;76.40;;;;;;5065143;28;20025;-76
2022/01/19 13:21:05;;;;;;;4.47;3.50;;;12.70;76.60;;;;;;5068096;28;20193;-75
2022/01/19 13:23:35;;;;;;;5.10;3.33;;;12.60;76.60;;;;;;5069724;28;20069;-75
2022/01/19 13:26:05;;;;;;;4.57;3.00;;;12.50;76.40;;;;;;5069906;28;20035;-75
2022/01/19 13:28:33;;;;;;;5.40;3.83;;;12.40;76.40;;;;;;5069615;28;20111;-76
2022/01/19 13:31:20;;;;;;;5.05;3.42;;;12.40;76.50;;;;;;5070046;28;20028;-76
2022/01/19 13:34:01;;;;;;;5.75;3.30;;;12.30;76.30;;;;;;5070049;28;20094;-76
2022/01/19 13:36:33;;;;;;;3.17;2.55;;;12.20;76.20;;;;;;5070128;28;20082;-77
2022/01/19 13:39:00;;;;;;;6.38;2.47;;;12.20;76.40;;;;;;5069864;28;20040;-76
2022/01/19 13:41:27;;;;;;;4.65;2.97;;;12.10;76.30;;;;;;5069591;28;20037;-77
2022/01/19 13:44:00;;;;;;;4.53;2.55;;;12.10;76.30;;;;;;5069610;28;20024;-77
2022/01/19 13:46:29;;;;;;;5.25;2.13;;;12.00;76.20;;;;;;5069021;28;20036;-77
2022/01/19 13:49:02;;;;;;;2.92;2.28;;;12.00;76.10;;;;;;5068391;28;20051;-77
2022/01/19 13:51:30;;;;;;;3.63;2.10;;;12.00;76.10;;;;;;5068698;28;20032;-77
2022/01/19 13:54:01;;;;;;;3.17;1.90;;;12.00;76.10;;;;;;5069630;28;20531;-76
2022/01/19 13:56:35;;;;;;;4.65;2.03;;;12.00;76.50;;;;;;5069355;28;20074;-76
2022/01/19 13:59:06;;;;;;;3.88;2.13;;;12.00;75.80;;;;;;5071046;28;20416;-76
2022/01/19 14:01:39;;;;;;;5.55;2.10;;;12.00;75.80;;;;;;5070486;28;20447;-76
2022/01/19 14:04:09;;;;;;;2.65;1.88;;;12.00;75.60;;;;;;5060616;28;20838;-76
2022/01/19 14:06:41;;;;;;;3.63;2.55;;;11.90;75.30;;;;;;5067548;28;20055;-76
2022/01/19 14:09:25;;;;;;;4.07;2.22;;;11.90;75.30;;;;;;5072065;28;20040;-76
2022/01/19 14:12:06;;;;;;;3.75;2.05;;;11.90;75.30;;;;;;5071919;28;20039;-78
2022/01/19 14:14:42;;;;;;;3.33;1.52;;;12.00;75.30;;;;;;5070040;28;20043;-78
2022/01/19 14:17:22;;;;;;;2.58;1.92;;;12.00;75.10;;;;;;5070099;28;20028;-77
2022/01/19 14:19:49;;;;;;;4.93;2.08;;;12.10;74.90;;;;;;5070904;28;20032;-78
2022/01/19 14:22:23;;;;;;;3.38;1.90;;;12.20;74.80;;;;;;5068993;28;20439;-78
2022/01/19 14:25:07;;;;;;;5.13;1.52;;;12.30;74.60;;;;;;5070380;28;20028;-78
2022/01/19 14:27:43;;;;;;;2.85;1.75;;;12.30;74.40;;;;;;5068180;28;20028;-76
2022/01/19 14:30:23;;;;;;;4.32;1.70;;;12.40;74.40;;;;;;5067969;28;20537;-77
2022/01/19 14:32:52;;;;;;;3.20;1.60;;;12.40;74.20;;;;;;5056195;28;20080;-76
2022/01/19 14:35:32;;;;;;;3.80;1.45;;;12.40;74.10;;;;;;5067798;28;20487;-76